Time;durP1;ratioP1;P1;durP2;ratioP2;P2;SDS_P1;SDS_P2;PMS_P1;PMS_P2;Temp;Humidity;BMP_temperature;BMP_pressure;BME280_temperature;BME280_humidity;BME280_pressure;Samples;Min_cycle;Max_cycle;Signal;HPM_P1;HPM_P2
2023/01/18 00:00:41;;;;;;;3.90;3.50;;;0.80;99.90;;;;;;5014163;28;20387;-77
2023/01/18 00:03:12;;;;;;;5.85;5.10;;;0.70;99.90;;;;;;5013658;28;20042;-77
2023/01/18 00:05:41;;;;;;;4.45;4.07;;;1.40;99.90;;;;;;5014795;28;20104;-77
2023/01/18 00:08:12;;;;;;;3.33;3.03;;;0.70;99.90;;;;;;5015930;28;20433;-77
2023/01/18 00:10:39;;;;;;;4.72;3.53;;;1.10;99.90;;;;;;5013769;28;20052;-77
2023/01/18 00:13:05;;;;;;;3.88;3.65;;;0.70;99.90;;;;;;5014522;28;20395;-77
2023/01/18 00:15:31;;;;;;;6.03;5.63;;;1.90;99.90;;;;;;5013334;28;20061;-77
2023/01/18 00:17:57;;;;;;;6.63;5.03;;;1.00;99.90;;;;;;5013582;28;20107;-77
2023/01/18 00:20:25;;;;;;;4.60;4.30;;;0.70;99.90;;;;;;4981889;28;20144;-77
2023/01/18 00:22:51;;;;;;;5.35;4.97;;;0.70;99.90;;;;;;5014179;28;20064;-77
2023/01/18 00:25:19;;;;;;;6.90;4.88;;;0.70;99.90;;;;;;4997167;28;20061;-78
2023/01/18 00:27:50;;;;;;;5.75;5.35;;;0.70;99.90;;;;;;5014255;28;20384;-77
2023/01/18 00:30:19;;;;;;;6.45;5.93;;;0.80;99.90;;;;;;5013996;28;20391;-77
2023/01/18 00:32:45;;;;;;;7.63;6.90;;;0.90;99.90;;;;;;5013295;28;20053;-78
2023/01/18 00:35:11;;;;;;;4.60;3.80;;;0.60;99.90;;;;;;5014276;28;20058;-78
2023/01/18 00:37:38;;;;;;;9.65;9.02;;;0.50;99.90;;;;;;5013076;28;20439;-77
2023/01/18 00:40:05;;;;;;;6.53;6.13;;;0.60;99.90;;;;;;5013481;28;20046;-77
2023/01/18 00:45:16;;;;;;;6.03;5.53;;;0.60;99.90;;;;;;5013435;28;20045;-78
2023/01/18 00:47:42;;;;;;;5.78;5.28;;;0.60;99.90;;;;;;5013130;28;20125;-77
2023/01/18 00:50:09;;;;;;;5.53;5.03;;;0.90;99.90;;;;;;5013634;28;20136;-77
2023/01/18 00:52:34;;;;;;;7.72;7.30;;;0.40;99.90;;;;;;5013853;28;20108;-76
2023/01/18 00:55:02;;;;;;;6.65;6.25;;;0.50;99.90;;;;;;5012862;28;20085;-77
2023/01/18 00:57:28;;;;;;;7.63;7.15;;;1.20;99.90;;;;;;4996767;28;20092;-77
2023/01/18 00:59:54;;;;;;;5.93;5.57;;;0.90;99.90;;;;;;4996566;28;20448;-77
2023/01/18 01:02:19;;;;;;;7.82;7.32;;;1.20;99.90;;;;;;4996447;28;20128;-77
2023/01/18 01:07:29;;;;;;;5.05;4.75;;;0.70;99.90;;;;;;5012381;28;20426;-77
2023/01/18 01:09:56;;;;;;;6.20;5.80;;;0.70;99.90;;;;;;5013160;28;20132;-77
2023/01/18 01:26:12;;;;;;;11.90;11.15;;;1.00;99.90;;;;;;5013412;28;20053;-77
2023/01/18 01:28:41;;;;;;;6.38;5.90;;;0.80;99.90;;;;;;5012667;28;20048;-77
2023/01/18 01:31:14;;;;;;;6.20;5.82;;;0.40;99.90;;;;;;5012534;28;20069;-77
2023/01/18 01:33:40;;;;;;;8.90;8.30;;;1.00;99.90;;;;;;5012915;28;20105;-77
2023/01/18 01:36:09;;;;;;;8.02;7.63;;;0.70;99.90;;;;;;5012586;28;20096;-77
2023/01/18 01:38:35;;;;;;;6.43;6.03;;;0.50;99.90;;;;;;5012574;28;20111;-77
2023/01/18 01:41:07;;;;;;;9.55;8.85;;;0.50;99.90;;;;;;5012833;28;20140;-76
2023/01/18 01:43:39;;;;;;;9.70;9.20;;;1.60;99.90;;;;;;5012606;28;20049;-76
2023/01/18 01:46:30;;;;;;;6.00;5.45;;;2.00;99.90;;;;;;5012498;28;20049;-77
2023/01/18 01:49:05;;;;;;;8.10;7.50;;;0.40;99.90;;;;;;5014226;28;20050;-76
2023/01/18 01:51:33;;;;;;;8.52;8.02;;;0.60;99.90;;;;;;5013266;28;20507;-77
2023/01/18 01:54:03;;;;;;;8.85;8.15;;;0.50;99.90;;;;;;5012290;28;20125;-77
2023/01/18 01:56:29;;;;;;;6.57;6.00;;;1.20;99.90;;;;;;5015394;28;20042;-77
2023/01/18 01:58:59;;;;;;;9.18;8.48;;;0.50;99.90;;;;;;5000254;28;20368;-77
2023/01/18 02:01:26;;;;;;;7.57;6.93;;;0.50;99.90;;;;;;5016145;28;20057;-76
2023/01/18 02:03:54;;;;;;;6.32;5.93;;;1.20;99.90;;;;;;5015560;28;20092;-76
2023/01/18 02:06:29;;;;;;;8.13;7.43;;;0.60;99.90;;;;;;5016345;28;20450;-76
2023/01/18 02:09:04;;;;;;;6.20;4.82;;;0.50;99.90;;;;;;4999602;28;20502;-75
2023/01/18 02:11:29;;;;;;;8.95;8.20;;;0.50;99.90;;;;;;5016281;28;20054;-76
2023/01/18 02:13:59;;;;;;;8.10;7.50;;;0.50;99.90;;;;;;5016917;28;20079;-76
2023/01/18 02:16:34;;;;;;;7.05;6.40;;;1.30;99.90;;;;;;5015876;28;20125;-76
2023/01/18 02:19:30;;;;;;;8.07;7.47;;;1.10;99.90;;;;;;4999267;28;20081;-77
2023/01/18 02:22:09;;;;;;;7.47;6.88;;;0.50;99.90;;;;;;5015798;28;20433;-76
2023/01/18 02:25:05;;;;;;;8.00;7.63;;;0.30;99.90;;;;;;5015792;28;20384;-76
2023/01/18 02:27:42;;;;;;;8.55;7.95;;;0.40;99.90;;;;;;5015659;28;20479;-77
2023/01/18 02:30:20;;;;;;;6.20;5.70;;;1.60;99.90;;;;;;5015489;28;20057;-77
2023/01/18 02:33:07;;;;;;;7.85;7.30;;;0.40;99.90;;;;;;5015355;28;20142;-77
2023/01/18 02:35:45;;;;;;;7.28;6.82;;;0.30;99.90;;;;;;5015308;28;20049;-77
2023/01/18 02:38:26;;;;;;;8.38;7.82;;;1.30;99.90;;;;;;5015815;28;20053;-77
2023/01/18 02:41:20;;;;;;;8.07;7.43;;;2.10;99.90;;;;;;4999888;28;20045;-77
2023/01/18 02:46:34;;;;;;;7.10;6.65;;;0.30;99.90;;;;;;5015550;28;20058;-77
2023/01/18 02:49:17;;;;;;;8.80;8.13;;;0.30;99.90;;;;;;5015075;28;20072;-77
2023/01/18 02:51:42;;;;;;;7.78;7.18;;;0.20;99.90;;;;;;5016282;28;20092;-76
2023/01/18 02:54:10;;;;;;;13.02;12.32;;;0.20;99.90;;;;;;5016079;28;20077;-76
2023/01/18 02:56:41;;;;;;;8.82;8.23;;;1.70;99.90;;;;;;5016177;28;20128;-77
2023/01/18 02:59:13;;;;;;;7.38;6.88;;;0.20;99.90;;;;;;5015079;28;20046;-77
2023/01/18 03:01:51;;;;;;;8.02;7.43;;;0.40;99.90;;;;;;5015246;28;20058;-77
2023/01/18 03:04:54;;;;;;;6.72;6.25;;;0.40;99.90;;;;;;4998714;28;20129;-77
2023/01/18 03:07:28;;;;;;;7.88;7.18;;;0.40;99.90;;;;;;5011987;28;20057;-77
2023/01/18 03:09:57;;;;;;;8.15;7.43;;;0.30;99.90;;;;;;4999453;28;20365;-76
2023/01/18 03:12:45;;;;;;;6.75;6.13;;;1.90;99.90;;;;;;5015900;28;20050;-77
2023/01/18 03:15:36;;;;;;;8.05;7.38;;;0.30;99.90;;;;;;5015635;28;20085;-78
2023/01/18 03:18:19;;;;;;;8.27;7.55;;;0.40;99.90;;;;;;5014979;28;20042;-77
2023/01/18 03:20:54;;;;;;;6.68;6.18;;;0.20;99.90;;;;;;4998308;28;20509;-77
2023/01/18 03:23:45;;;;;;;7.60;6.95;;;0.30;99.90;;;;;;4998889;28;20046;-77
2023/01/18 03:26:19;;;;;;;6.85;6.25;;;0.80;99.90;;;;;;5013524;28;20054;-77
2023/01/18 03:34:31;;;;;;;8.30;7.60;;;0.70;99.90;;;;;;5014417;28;20046;-77
2023/01/18 03:37:01;;;;;;;8.55;7.95;;;0.10;99.90;;;;;;5014322;28;20481;-77
2023/01/18 03:39:37;;;;;;;9.55;8.77;;;0.20;99.90;;;;;;5014325;28;20133;-77
2023/01/18 03:42:08;;;;;;;9.43;8.65;;;1.00;99.90;;;;;;4998845;28;20058;-77
2023/01/18 03:44:38;;;;;;;8.50;7.80;;;0.40;99.90;;;;;;5014559;28;20095;-77
2023/01/18 03:47:05;;;;;;;8.93;8.15;;;1.30;99.90;;;;;;5014158;28;20100;-76
2023/01/18 03:49:33;;;;;;;10.48;9.77;;;0.30;99.90;;;;;;5013900;28;20061;-77
2023/01/18 03:52:23;;;;;;;8.90;8.15;;;1.10;99.90;;;;;;4998699;28;20053;-77
2023/01/18 03:55:17;;;;;;;9.20;8.60;;;0.10;99.90;;;;;;5014126;28;20099;-77
2023/01/18 03:57:49;;;;;;;8.85;8.15;;;0.20;99.90;;;;;;4997045;28;20518;-77
2023/01/18 04:00:16;;;;;;;8.77;8.02;;;0.30;99.90;;;;;;5013917;28;20395;-77
2023/01/18 04:02:47;;;;;;;9.45;8.57;;;0.20;99.90;;;;;;5013696;28;20100;-76
2023/01/18 04:05:14;;;;;;;9.20;8.40;;;0.00;99.90;;;;;;5014754;28;20049;-77
2023/01/18 04:07:40;;;;;;;7.32;6.68;;;0.20;99.90;;;;;;4980852;28;20112;-77
2023/01/18 04:10:06;;;;;;;9.30;8.43;;;0.20;99.90;;;;;;4997899;28;20054;-77
2023/01/18 04:12:33;;;;;;;9.13;8.43;;;0.20;99.90;;;;;;4997571;28;20140;-77
2023/01/18 04:15:00;;;;;;;8.82;8.13;;;0.10;99.90;;;;;;5014140;28;20115;-77
2023/01/18 04:17:26;;;;;;;10.02;9.32;;;1.00;99.90;;;;;;4997324;28;20046;-77
2023/01/18 04:19:52;;;;;;;9.13;8.48;;;0.60;99.90;;;;;;5013261;28;20445;-77
2023/01/18 04:22:18;;;;;;;8.20;7.40;;;0.70;99.90;;;;;;4997318;28;20099;-77
2023/01/18 04:24:43;;;;;;;8.38;7.68;;;0.90;99.90;;;;;;5013727;28;20049;-76
2023/01/18 04:27:09;;;;;;;7.85;7.13;;;0.20;99.90;;;;;;5014634;28;20057;-77
2023/01/18 04:29:35;;;;;;;8.40;7.65;;;0.00;99.90;;;;;;4997352;28;20618;-77
2023/01/18 04:32:01;;;;;;;6.95;6.35;;;0.00;99.90;;;;;;4980974;28;20053;-77
2023/01/18 04:34:27;;;;;;;8.00;7.22;;;0.50;99.90;;;;;;5013428;28;20124;-77
2023/01/18 04:36:52;;;;;;;10.13;9.23;;;0.20;99.90;;;;;;4997365;28;20139;-76
2023/01/18 04:39:19;;;;;;;11.10;10.30;;;0.10;99.90;;;;;;5014279;28;20045;-76
2023/01/18 04:41:45;;;;;;;10.10;9.10;;;0.60;99.90;;;;;;4997057;28;20132;-76
2023/01/18 04:44:11;;;;;;;9.90;8.82;;;1.00;99.90;;;;;;5013012;28;20049;-75
2023/01/18 04:46:37;;;;;;;9.73;8.85;;;1.00;99.90;;;;;;4980435;28;20050;-75
2023/01/18 04:49:14;;;;;;;12.50;11.40;;;0.00;99.90;;;;;;5013303;28;20048;-76
2023/01/18 04:51:40;;;;;;;12.00;11.10;;;0.20;99.90;;;;;;5013264;28;20053;-76
2023/01/18 04:54:05;;;;;;;10.68;9.80;;;0.60;99.90;;;;;;4981063;28;20125;-76
2023/01/18 04:56:31;;;;;;;9.13;8.07;;;0.90;99.90;;;;;;5013162;28;20494;-76
2023/01/18 04:58:56;;;;;;;11.35;10.20;;;0.50;99.90;;;;;;5013171;28;20502;-76
2023/01/18 05:01:22;;;;;;;12.23;9.93;;;0.20;99.90;;;;;;5014293;28;20387;-76
2023/01/18 05:03:48;;;;;;;9.73;8.90;;;0.00;99.90;;;;;;5012896;28;20057;-76
2023/01/18 05:06:15;;;;;;;10.30;8.75;;;0.00;99.90;;;;;;4996685;28;20052;-76
2023/01/18 05:08:42;;;;;;;8.93;8.07;;;0.30;99.90;;;;;;5012418;28;20054;-75
2023/01/18 05:11:10;;;;;;;8.98;8.25;;;1.50;99.90;;;;;;5013211;28;20184;-76
2023/01/18 05:13:37;;;;;;;12.05;11.02;;;0.20;99.90;;;;;;5013030;28;20128;-76
2023/01/18 05:16:04;;;;;;;11.27;8.77;;;0.20;99.90;;;;;;5013006;28;20042;-76
2023/01/18 05:18:30;;;;;;;10.05;8.77;;;0.10;99.90;;;;;;5012930;28;20413;-75
2023/01/18 05:20:55;;;;;;;11.50;10.45;;;1.40;99.90;;;;;;5012926;28;20049;-76
2023/01/18 05:23:21;;;;;;;10.40;9.50;;;-0.20;99.90;;;;;;5013748;28;20046;-76
2023/01/18 05:25:55;;;;;;;10.73;9.88;;;0.00;99.90;;;;;;5013177;28;20137;-75
2023/01/18 05:28:22;;;;;;;11.20;10.18;;;-0.20;99.90;;;;;;5013672;28;20050;-74
2023/01/18 05:30:49;;;;;;;9.88;8.88;;;-0.20;99.90;;;;;;5015595;28;20045;-76
2023/01/18 05:33:15;;;;;;;12.43;11.10;;;-0.20;99.90;;;;;;5001232;28;20084;-76
2023/01/18 05:35:52;;;;;;;12.27;11.27;;;-0.20;99.90;;;;;;5000736;28;20061;-76
2023/01/18 05:38:20;;;;;;;12.13;11.07;;;-0.10;99.90;;;;;;5017625;28;20049;-76
2023/01/18 05:40:51;;;;;;;11.82;9.95;;;0.60;99.90;;;;;;5016960;28;20082;-76
2023/01/18 05:43:18;;;;;;;10.45;9.35;;;0.80;99.90;;;;;;5018218;28;20049;-76
2023/01/18 05:45:44;;;;;;;10.00;9.05;;;-0.30;99.90;;;;;;5017500;28;20089;-76
2023/01/18 05:48:10;;;;;;;11.98;10.85;;;-0.20;99.90;;;;;;4984957;28;20162;-76
2023/01/18 05:50:42;;;;;;;9.98;8.93;;;-0.10;99.90;;;;;;5016549;28;20104;-76
2023/01/18 05:53:08;;;;;;;12.52;11.52;;;-0.20;99.90;;;;;;5000120;28;20053;-76
2023/01/18 05:55:34;;;;;;;9.52;8.63;;;1.10;99.90;;;;;;5016440;28;20057;-76
2023/01/18 05:58:00;;;;;;;10.75;9.68;;;0.00;99.90;;;;;;5017669;28;20143;-76
2023/01/18 06:00:25;;;;;;;10.23;8.95;;;0.20;99.90;;;;;;5017133;28;20053;-76
2023/01/18 06:02:52;;;;;;;9.43;8.52;;;0.10;99.90;;;;;;5016111;28;20088;-76
2023/01/18 06:05:19;;;;;;;11.90;8.93;;;1.20;99.90;;;;;;5015982;28;20054;-76
2023/01/18 06:07:46;;;;;;;11.02;10.00;;;-0.20;99.90;;;;;;5015822;28;20454;-75
2023/01/18 06:10:13;;;;;;;9.10;8.35;;;-0.40;99.90;;;;;;5016820;28;20400;-76
2023/01/18 06:12:39;;;;;;;9.20;8.18;;;0.30;99.90;;;;;;5017096;28;20041;-76
2023/01/18 06:15:05;;;;;;;11.07;10.13;;;0.00;99.90;;;;;;5016106;28;20054;-76
2023/01/18 06:17:31;;;;;;;10.35;9.38;;;-0.30;99.90;;;;;;5016012;28;20097;-76
2023/01/18 06:19:57;;;;;;;8.73;7.82;;;-0.30;99.90;;;;;;5016963;28;20090;-76
2023/01/18 06:22:23;;;;;;;10.68;9.68;;;0.80;99.90;;;;;;4999606;28;20444;-75
2023/01/18 06:24:48;;;;;;;8.88;8.13;;;-0.20;99.90;;;;;;4983407;28;20057;-76
2023/01/18 06:27:14;;;;;;;8.57;7.70;;;0.50;99.90;;;;;;5015866;28;20395;-76
2023/01/18 06:29:40;;;;;;;8.80;8.00;;;0.10;99.90;;;;;;5017566;28;20499;-76
2023/01/18 06:32:06;;;;;;;11.18;8.43;;;-0.40;99.90;;;;;;5015650;28;20045;-76
2023/01/18 06:34:32;;;;;;;9.73;7.55;;;-0.30;99.90;;;;;;4999339;28;20048;-75
2023/01/18 06:36:58;;;;;;;8.30;7.40;;;-0.20;99.90;;;;;;5015449;28;20129;-76
2023/01/18 06:39:24;;;;;;;8.68;7.18;;;0.40;99.90;;;;;;5016630;28;20096;-76
2023/01/18 06:41:50;;;;;;;9.80;8.90;;;-0.30;99.90;;;;;;5014749;28;20052;-76
2023/01/18 06:44:16;;;;;;;14.25;13.25;;;-0.10;99.90;;;;;;4982827;28;20133;-76
2023/01/18 06:46:43;;;;;;;12.63;11.52;;;0.20;99.90;;;;;;5015138;28;20398;-76
2023/01/18 06:49:10;;;;;;;13.40;11.98;;;0.80;99.90;;;;;;4998889;28;20140;-77
2023/01/18 06:51:36;;;;;;;12.35;11.30;;;-0.20;99.90;;;;;;5015410;28;20112;-76
2023/01/18 06:54:02;;;;;;;10.75;9.85;;;-0.20;99.90;;;;;;4998798;28;20050;-76
2023/01/18 06:56:28;;;;;;;10.63;9.82;;;0.00;99.90;;;;;;4998921;28;20046;-76
2023/01/18 06:58:56;;;;;;;11.90;10.95;;;0.50;99.90;;;;;;4982718;28;20061;-76
2023/01/18 07:01:22;;;;;;;10.88;10.05;;;-0.10;99.90;;;;;;4983197;28;20053;-77
2023/01/18 07:03:48;;;;;;;10.23;9.02;;;1.30;99.90;;;;;;4998195;28;20045;-76
2023/01/18 07:06:13;;;;;;;10.23;9.38;;;-0.20;99.90;;;;;;4998531;28;20046;-76
2023/01/18 07:08:39;;;;;;;9.43;8.35;;;-0.10;99.90;;;;;;5014475;28;20112;-75
2023/01/18 07:11:07;;;;;;;9.25;8.45;;;0.40;99.90;;;;;;5014614;28;20085;-77
2023/01/18 07:13:33;;;;;;;8.90;8.00;;;-0.10;99.90;;;;;;5014815;28;20064;-77
2023/01/18 07:16:00;;;;;;;8.40;7.70;;;0.40;99.90;;;;;;5014817;28;20115;-77
2023/01/18 07:18:27;;;;;;;9.88;8.38;;;0.20;99.90;;;;;;4998726;28;20475;-77
2023/01/18 07:20:58;;;;;;;8.68;7.55;;;1.30;99.90;;;;;;4999289;28;20188;-74
2023/01/18 07:23:24;;;;;;;9.68;8.50;;;0.10;99.90;;;;;;5003856;28;20046;-78
2023/01/18 07:25:58;;;;;;;9.48;8.57;;;0.70;99.90;;;;;;4982355;28;20085;-77
2023/01/18 07:28:23;;;;;;;;;;;0.00;99.90;;;;;;4998921;28;20103;-77
2023/01/18 07:30:49;;;;;;;15.15;13.85;;;0.80;99.90;;;;;;5014931;28;19921;-77
2023/01/18 07:33:14;;;;;;;10.63;9.82;;;1.60;99.90;;;;;;5015388;28;20057;-78
2023/01/18 07:35:40;;;;;;;12.10;11.23;;;-0.10;99.90;;;;;;5014929;28;20141;-79
2023/01/18 07:38:06;;;;;;;10.23;9.43;;;0.10;99.90;;;;;;5017982;28;20104;-78
2023/01/18 07:40:32;;;;;;;10.05;9.15;;;0.30;99.90;;;;;;4982674;28;20065;-77
2023/01/18 07:42:58;;;;;;;9.38;8.48;;;1.30;99.90;;;;;;4998933;28;20088;-77
2023/01/18 07:45:24;;;;;;;11.50;10.57;;;0.70;99.90;;;;;;5014147;28;20491;-77
2023/01/18 07:47:51;;;;;;;7.25;6.45;;;-0.10;99.90;;;;;;4982112;28;20041;-76
2023/01/18 07:50:17;;;;;;;9.60;8.70;;;0.90;99.90;;;;;;5014405;28;20447;-77
2023/01/18 07:52:43;;;;;;;14.40;13.23;;;-0.10;99.90;;;;;;5013189;28;20130;-78
2023/01/18 07:55:09;;;;;;;9.77;8.77;;;-0.30;99.90;;;;;;5014453;28;20069;-82
2023/01/18 07:57:34;;;;;;;11.88;10.48;;;-0.20;99.90;;;;;;5014178;28;20054;-78
2023/01/18 08:00:00;;;;;;;10.10;9.13;;;0.60;99.90;;;;;;5014158;28;20126;-75
2023/01/18 08:02:26;;;;;;;10.88;9.77;;;0.10;99.90;;;;;;5014748;28;20137;-76
2023/01/18 08:04:51;;;;;;;9.57;8.73;;;0.10;99.90;;;;;;5014334;28;20057;-76
2023/01/18 08:07:17;;;;;;;10.68;9.68;;;-0.20;99.90;;;;;;5013666;28;20128;-75
2023/01/18 08:09:43;;;;;;;9.52;8.55;;;0.00;99.90;;;;;;5013612;28;20402;-74
2023/01/18 08:12:12;;;;;;;10.73;9.68;;;-0.10;99.90;;;;;;5013960;28;20045;-73
2023/01/18 08:14:39;;;;;;;10.27;9.13;;;0.30;99.90;;;;;;5014042;28;20053;-79
2023/01/18 08:17:05;;;;;;;13.45;8.98;;;0.00;99.90;;;;;;4997610;28;20053;-78
2023/01/18 08:19:31;;;;;;;8.93;7.65;;;0.00;99.90;;;;;;5014788;28;20046;-74
2023/01/18 08:21:57;;;;;;;11.13;10.10;;;1.10;99.90;;;;;;4997465;28;20053;-74
2023/01/18 08:24:23;;;;;;;9.55;7.85;;;-0.10;99.90;;;;;;4997148;28;20046;-74
2023/01/18 08:26:48;;;;;;;11.18;7.68;;;-0.20;99.90;;;;;;5013483;28;20059;-79
2023/01/18 08:29:14;;;;;;;9.52;8.52;;;1.00;99.90;;;;;;5013594;28;20050;-79
2023/01/18 08:31:40;;;;;;;10.15;9.10;;;1.40;99.90;;;;;;4964772;28;20057;-80
2023/01/18 08:34:05;;;;;;;11.13;10.10;;;-0.10;99.90;;;;;;5013587;28;20042;-79
2023/01/18 08:36:31;;;;;;;11.07;10.07;;;1.30;99.90;;;;;;4981047;28;20143;-79
2023/01/18 08:38:57;;;;;;;10.52;9.57;;;0.00;99.90;;;;;;5013427;28;20045;-79
2023/01/18 08:41:28;;;;;;;11.10;9.88;;;-0.50;99.90;;;;;;4997159;28;20041;-79
2023/01/18 08:43:55;;;;;;;10.98;9.88;;;0.30;99.90;;;;;;5012947;28;20104;-79
2023/01/18 08:46:21;;;;;;;10.15;9.27;;;0.10;99.90;;;;;;4997115;28;20053;-74
2023/01/18 08:48:51;;;;;;;10.20;9.18;;;1.30;99.90;;;;;;4997576;28;20049;-74
2023/01/18 08:51:17;;;;;;;10.25;9.20;;;-0.10;99.90;;;;;;5012821;28;20054;-75
2023/01/18 08:53:43;;;;;;;10.80;9.88;;;0.20;99.90;;;;;;4996648;28;20125;-74
2023/01/18 08:56:09;;;;;;;12.13;10.93;;;1.30;99.90;;;;;;5012981;28;20046;-75
2023/01/18 08:58:35;;;;;;;11.65;9.48;;;1.40;99.90;;;;;;4996778;28;20050;-74
2023/01/18 09:01:06;;;;;;;11.05;10.02;;;1.30;99.90;;;;;;5012875;28;20046;-73
2023/01/18 09:03:31;;;;;;;10.77;8.85;;;0.00;99.90;;;;;;4965222;28;20050;-73
2023/01/18 09:06:01;;;;;;;14.75;13.63;;;0.90;99.90;;;;;;5013790;28;20046;-72
2023/01/18 09:08:27;;;;;;;15.05;13.80;;;0.40;99.90;;;;;;5014064;28;20069;-72
2023/01/18 09:10:53;;;;;;;13.88;12.95;;;0.40;99.90;;;;;;5012969;28;20053;-73
2023/01/18 09:13:19;;;;;;;15.65;14.65;;;0.20;99.90;;;;;;5012810;28;20172;-72
2023/01/18 09:15:48;;;;;;;6.40;3.55;;;0.40;99.90;;;;;;5013229;28;20049;-73
2023/01/18 09:18:13;;;;;;;7.50;3.78;;;1.60;99.90;;;;;;5013910;28;20050;-74
2023/01/18 09:20:39;;;;;;;7.65;3.70;;;0.70;99.90;;;;;;5013821;28;20048;-74
2023/01/18 09:23:06;;;;;;;7.68;6.95;;;1.10;99.90;;;;;;4996125;28;20046;-73
2023/01/18 09:25:35;;;;;;;7.82;7.13;;;2.20;99.90;;;;;;5013128;28;20180;-74
2023/01/18 09:28:02;;;;;;;8.95;6.50;;;0.80;99.90;;;;;;4996549;28;20139;-74
2023/01/18 09:30:28;;;;;;;9.45;6.93;;;0.60;99.90;;;;;;5012823;28;20610;-74
2023/01/18 09:32:58;;;;;;;17.88;16.48;;;0.60;99.90;;;;;;5012815;28;20419;-74
2023/01/18 09:35:24;;;;;;;21.02;19.23;;;0.30;99.90;;;;;;4997262;28;20395;-74
2023/01/18 09:37:49;;;;;;;20.17;18.48;;;0.20;99.90;;;;;;5013076;28;20046;-74
2023/01/18 09:40:18;;;;;;;24.88;23.23;;;1.10;99.90;;;;;;5012805;28;20395;-73
2023/01/18 09:42:46;;;;;;;22.35;21.00;;;0.40;99.90;;;;;;5012880;28;20041;-74
2023/01/18 09:45:28;;;;;;;22.10;20.60;;;1.10;99.90;;;;;;4996319;28;20475;-73
2023/01/18 09:48:03;;;;;;;25.50;23.92;;;0.60;99.90;;;;;;5012698;28;20492;-73
2023/01/18 09:50:34;;;;;;;45.13;42.30;;;1.00;99.90;;;;;;4996625;28;20049;-74
2023/01/18 09:53:28;;;;;;;25.17;23.58;;;1.00;99.90;;;;;;5012782;28;20403;-74
2023/01/18 09:55:57;;;;;;;;;;;0.50;99.90;;;;;;5014063;28;20411;-74
2023/01/18 09:58:57;;;;;;;23.95;22.13;;;0.80;99.90;;;;;;5012638;28;19945;-73
2023/01/18 10:01:27;;;;;;;17.52;16.15;;;0.70;99.90;;;;;;5013129;28;20400;-74
2023/01/18 10:03:58;;;;;;;23.75;22.00;;;1.40;99.90;;;;;;5012283;28;20096;-74
2023/01/18 10:06:29;;;;;;;35.35;33.28;;;1.30;99.90;;;;;;5013420;28;20050;-74
2023/01/18 10:09:05;;;;;;;60.20;57.38;;;1.00;99.90;;;;;;5012090;28;20058;-74
2023/01/18 10:11:49;;;;;;;11.65;7.47;;;1.70;99.90;;;;;;5013294;28;20061;-74
2023/01/18 10:14:36;;;;;;;9.27;6.93;;;0.80;99.90;;;;;;5013469;28;20125;-74
2023/01/18 10:17:08;;;;;;;12.70;7.28;;;0.90;99.90;;;;;;5015897;28;20048;-74
2023/01/18 10:19:34;;;;;;;10.23;7.28;;;1.00;99.90;;;;;;5017134;28;20133;-74
2023/01/18 10:22:23;;;;;;;10.48;6.65;;;1.50;99.90;;;;;;5015778;28;20129;-74
2023/01/18 10:25:05;;;;;;;10.10;6.40;;;1.00;99.90;;;;;;5016288;28;20414;-74
2023/01/18 10:27:57;;;;;;;8.98;6.60;;;1.00;99.90;;;;;;4999513;28;20045;-74
2023/01/18 10:30:30;;;;;;;7.82;6.50;;;1.80;99.90;;;;;;5017653;28;20108;-74
2023/01/18 10:32:58;;;;;;;10.85;6.65;;;2.20;99.90;;;;;;5000253;28;20061;-73
2023/01/18 10:35:34;;;;;;;9.43;6.57;;;1.30;99.90;;;;;;5015758;28;20130;-74
2023/01/18 10:38:05;;;;;;;7.90;6.22;;;1.50;99.90;;;;;;4999608;28;20064;-74
2023/01/18 10:40:32;;;;;;;8.32;6.43;;;1.30;99.90;;;;;;4999626;28;20062;-74
2023/01/18 10:43:01;;;;;;;10.82;6.47;;;1.60;99.90;;;;;;5015516;28;20103;-74
2023/01/18 10:45:29;;;;;;;8.35;6.65;;;2.10;99.90;;;;;;5015843;28;20133;-73
2023/01/18 10:47:57;;;;;;;8.05;6.13;;;1.50;99.90;;;;;;5015526;28;20050;-75
2023/01/18 10:50:45;;;;;;;7.63;6.05;;;1.60;99.90;;;;;;4999172;28;20087;-74
2023/01/18 10:53:23;;;;;;;7.32;6.00;;;1.70;99.90;;;;;;5015414;28;20129;-74
2023/01/18 10:56:04;;;;;;;10.73;6.82;;;1.60;99.90;;;;;;5016034;28;20112;-74
2023/01/18 10:58:31;;;;;;;8.23;6.07;;;1.60;99.90;;;;;;5016172;28;20074;-76
2023/01/18 11:00:59;;;;;;;8.13;6.32;;;2.80;99.90;;;;;;5015841;28;20077;-70
2023/01/18 11:03:26;;;;;;;9.85;5.97;;;1.60;99.90;;;;;;5016142;28;20494;-79
2023/01/18 11:06:00;;;;;;;9.82;5.93;;;2.10;99.90;;;;;;5014770;28;20046;-80
2023/01/18 11:08:30;;;;;;;;;;;1.70;99.90;;;;;;5015381;28;20054;-73
2023/01/18 11:11:00;;;;;;;6.47;5.50;;;1.70;99.90;;;;;;5015540;28;19976;-74
2023/01/18 11:13:38;;;;;;;8.55;5.40;;;1.80;99.90;;;;;;5015333;28;20136;-73
2023/01/18 11:16:07;;;;;;;9.20;5.38;;;1.90;99.90;;;;;;5016584;28;20132;-74
2023/01/18 11:18:33;;;;;;;9.27;5.72;;;1.90;99.90;;;;;;5016136;28;20506;-74
2023/01/18 11:20:59;;;;;;;8.13;5.97;;;2.10;99.90;;;;;;4998698;28;20054;-74
2023/01/18 11:23:34;;;;;;;8.82;5.43;;;2.20;99.90;;;;;;5015821;28;20125;-74
2023/01/18 11:26:11;;;;;;;7.97;5.45;;;3.20;99.90;;;;;;5016091;28;20045;-73
2023/01/18 11:28:59;;;;;;;7.93;5.47;;;2.20;99.90;;;;;;5016232;28;20046;-73
2023/01/18 11:31:46;;;;;;;7.65;5.72;;;2.00;99.90;;;;;;5015675;28;20053;-74
2023/01/18 11:34:27;;;;;;;7.55;5.75;;;3.30;99.90;;;;;;5015411;28;20553;-74
2023/01/18 11:36:53;;;;;;;9.88;5.20;;;2.20;99.90;;;;;;5014606;28;20046;-74
2023/01/18 11:39:25;;;;;;;6.88;5.50;;;3.20;99.90;;;;;;5014541;28;20145;-74
2023/01/18 11:42:08;;;;;;;9.02;5.45;;;2.50;99.90;;;;;;5014463;28;20050;-75
2023/01/18 11:44:37;;;;;;;7.25;5.70;;;2.50;99.90;;;;;;5015423;28;20048;-74
2023/01/18 11:47:08;;;;;;;7.45;5.40;;;2.60;99.90;;;;;;4998078;28;20096;-74
2023/01/18 11:50:01;;;;;;;7.70;5.32;;;2.40;99.90;;;;;;5019387;28;20050;-74
2023/01/18 11:52:36;;;;;;;5.90;4.90;;;2.70;99.90;;;;;;5018922;28;20057;-75
2023/01/18 11:55:08;;;;;;;6.75;4.40;;;2.30;99.90;;;;;;5014270;28;20128;-76
2023/01/18 11:57:34;;;;;;;7.18;4.72;;;2.40;99.90;;;;;;5013943;28;20054;-76
2023/01/18 11:59:59;;;;;;;6.63;4.63;;;2.70;99.90;;;;;;4997584;28;20056;-76
2023/01/18 12:03:09;;;;;;;7.80;4.28;;;2.50;99.90;;;;;;5014025;28;20052;-75
2023/01/18 12:05:53;;;;;;;7.85;4.75;;;2.50;99.90;;;;;;5014892;28;20502;-75
2023/01/18 12:08:37;;;;;;;6.30;4.45;;;2.60;99.90;;;;;;5013048;28;20053;-76
2023/01/18 12:11:18;;;;;;;114.85;107.25;;;2.70;99.90;;;;;;5015187;28;20073;-81
2023/01/18 12:13:50;;;;;;;17.52;16.20;;;2.70;99.90;;;;;;5014073;28;20053;-75
2023/01/18 12:16:27;;;;;;;12.52;11.52;;;3.10;99.90;;;;;;5013484;28;20050;-76
2023/01/18 12:19:18;;;;;;;15.30;14.30;;;2.60;99.90;;;;;;5014061;28;20046;-75
2023/01/18 12:21:55;;;;;;;8.85;8.27;;;2.70;99.90;;;;;;5014691;28;20430;-75
2023/01/18 12:24:30;;;;;;;10.65;9.80;;;2.80;99.90;;;;;;5013222;28;20052;-76
2023/01/18 12:27:48;;;;;;;25.30;24.00;;;2.80;99.90;;;;;;5014575;28;20053;-75
2023/01/18 12:30:31;;;;;;;9.00;8.18;;;2.90;99.90;;;;;;5001525;28;20053;-75
2023/01/18 12:33:24;;;;;;;10.57;9.95;;;2.90;99.90;;;;;;5014271;28;20108;-74
2023/01/18 12:36:02;;;;;;;10.77;9.95;;;2.90;99.90;;;;;;5014425;28;20042;-74
2023/01/18 12:38:31;;;;;;;8.73;8.02;;;3.00;99.90;;;;;;5013669;28;20046;-75
2023/01/18 12:41:12;;;;;;;8.43;7.63;;;3.50;99.90;;;;;;5014184;28;20062;-74
2023/01/18 12:43:43;;;;;;;9.05;8.35;;;2.40;99.90;;;;;;5013291;28;20042;-74
2023/01/18 12:46:14;;;;;;;8.93;7.30;;;3.10;99.90;;;;;;5014261;28;20061;-76
2023/01/18 12:49:10;;;;;;;7.30;6.70;;;3.00;99.90;;;;;;5013646;28;20137;-75
2023/01/18 12:51:37;;;;;;;8.27;6.93;;;3.30;99.90;;;;;;5011318;28;20407;-75
2023/01/18 12:54:31;;;;;;;6.43;5.82;;;3.50;99.90;;;;;;5014042;28;20070;-75
2023/01/18 12:56:58;;;;;;;6.00;5.40;;;3.20;99.90;;;;;;5013150;28;20555;-75
2023/01/18 12:59:42;;;;;;;8.55;6.80;;;3.20;99.90;;;;;;5012849;28;20391;-75
2023/01/18 13:02:23;;;;;;;7.82;7.22;;;3.50;99.90;;;;;;5013296;28;20096;-75
2023/01/18 13:05:03;;;;;;;6.63;6.13;;;4.10;99.90;;;;;;5014747;28;20046;-75
2023/01/18 13:07:39;;;;;;;6.45;5.68;;;4.20;99.90;;;;;;4980724;28;20054;-75
2023/01/18 13:10:12;;;;;;;62.13;58.95;;;3.70;99.90;;;;;;5012329;28;20054;-75
2023/01/18 13:12:38;;;;;;;;;;;3.30;99.90;;;;;;5014394;28;20052;-75
2023/01/18 13:15:21;;;;;;;6.88;6.10;;;3.40;99.90;;;;;;5013986;28;19928;-75
2023/01/18 13:18:12;;;;;;;6.47;5.82;;;3.30;99.90;;;;;;5014007;28;20057;-76
2023/01/18 13:20:47;;;;;;;5.55;5.03;;;3.40;99.90;;;;;;4997449;28;20065;-75
2023/01/18 13:23:22;;;;;;;10.48;9.73;;;3.40;99.90;;;;;;5013032;28;20042;-75
2023/01/18 13:25:47;;;;;;;5.38;4.63;;;3.40;99.90;;;;;;5012969;28;20196;-75
2023/01/18 13:28:22;;;;;;;5.60;4.82;;;4.60;99.90;;;;;;5012877;28;20523;-75
2023/01/18 13:31:03;;;;;;;5.22;4.72;;;3.60;99.90;;;;;;5012777;28;20050;-76
2023/01/18 13:33:43;;;;;;;7.15;6.72;;;4.20;99.90;;;;;;5013709;28;20045;-75
2023/01/18 13:36:13;;;;;;;6.50;5.85;;;3.30;99.90;;;;;;5013597;28;20072;-75
2023/01/18 13:38:49;;;;;;;4.57;3.97;;;4.60;99.90;;;;;;5012965;28;20043;-75